createdAt,value
2018-04-24T00:04:42.856Z,16.50
2018-04-24T00:09:45.917Z,13.37
2018-04-24T00:14:48.490Z,17.70
2018-04-24T00:19:51.850Z,12.77
2018-04-24T00:24:54.437Z,11.30
2018-04-24T00:29:57.021Z,12.70
2018-04-24T00:34:59.623Z,13.50
2018-04-24T00:40:02.209Z,14.47
2018-04-24T00:45:04.847Z,11.70
2018-04-24T00:50:07.517Z,17.23
2018-04-24T00:55:10.093Z,14.23
2018-04-24T01:00:13.441Z,19.10
2018-04-24T01:05:16.411Z,14.90
2018-04-24T01:10:20.140Z,18.83
2018-04-24T01:15:23.481Z,15.87
2018-04-24T01:20:26.041Z,16.50
2018-04-24T01:25:29.380Z,11.17
2018-04-24T01:30:31.985Z,19.27
2018-04-24T01:35:34.557Z,13.70
2018-04-24T01:40:37.889Z,18.40
2018-04-24T01:45:41.230Z,15.80
2018-04-24T01:50:43.801Z,14.73
2018-04-24T01:55:47.932Z,13.60
2018-04-24T02:00:51.255Z,13.17
2018-04-24T02:05:54.597Z,13.20
2018-04-24T02:10:57.213Z,16.87
2018-04-24T02:15:59.816Z,17.77
2018-04-24T02:21:02.372Z,18.13
2018-04-24T02:26:04.953Z,17.60
2018-04-24T02:31:07.560Z,17.00
2018-04-24T02:36:10.913Z,19.53
2018-04-24T02:41:13.495Z,21.90
2018-04-24T02:46:16.069Z,15.50
2018-04-24T02:51:19.423Z,14.03
2018-04-24T02:56:22.000Z,17.07
2018-04-24T03:01:24.579Z,15.93
2018-04-24T03:06:27.900Z,19.53
2018-04-24T03:11:30.475Z,15.17
2018-04-24T03:16:33.810Z,20.60
2018-04-24T03:21:37.152Z,19.30
2018-04-24T03:26:39.746Z,15.23
2018-04-24T03:31:42.332Z,15.03
2018-04-24T03:36:44.948Z,15.77
2018-04-24T03:41:47.532Z,13.43
2018-04-24T03:46:50.707Z,16.30
2018-04-24T03:51:53.274Z,16.13
2018-04-24T03:56:55.833Z,16.10
2018-04-24T04:01:59.044Z,19.40
2018-04-24T04:07:01.600Z,14.07
2018-04-24T04:12:04.205Z,20.50
2018-04-24T04:17:19.735Z,19.93
2018-04-24T04:22:35.069Z,18.50
2018-04-24T04:27:39.081Z,15.73
2018-04-24T04:32:41.788Z,17.53
2018-04-24T04:37:44.356Z,19.47
2018-04-24T04:42:48.343Z,17.47
2018-04-24T04:47:51.513Z,21.90
2018-04-24T04:52:55.046Z,21.13
2018-04-24T04:57:57.626Z,26.27
2018-04-24T05:03:01.845Z,18.90
2018-04-24T05:08:05.189Z,20.83
2018-04-24T05:13:10.296Z,23.23
2018-04-24T05:18:12.866Z,24.87
2018-04-24T05:23:16.244Z,21.47
2018-04-24T05:28:20.349Z,22.87
2018-04-24T05:33:22.936Z,27.90
2018-04-24T05:38:25.527Z,24.80
2018-04-24T05:43:29.999Z,21.60
2018-04-24T05:48:33.332Z,20.90
2018-04-24T05:53:37.245Z,21.97
2018-04-24T05:58:45.713Z,18.13
2018-04-24T06:03:48.720Z,22.70
2018-04-24T06:08:51.637Z,23.40
2018-04-24T06:14:09.058Z,20.07
2018-04-24T06:19:12.387Z,22.00
2018-04-24T06:24:17.658Z,21.37
2018-04-24T06:29:20.233Z,23.73
2018-04-24T06:34:24.154Z,21.10
2018-04-24T06:39:30.932Z,24.37
2018-04-24T06:44:33.533Z,21.70
2018-04-24T06:49:37.982Z,19.80
2018-04-24T06:54:44.153Z,21.17
2018-04-24T06:59:46.708Z,23.53
2018-04-24T07:04:49.289Z,18.23
2018-04-24T07:09:52.492Z,20.73
2018-04-24T07:14:56.660Z,18.57
2018-04-24T07:19:59.251Z,29.23
2018-04-24T07:25:01.830Z,24.13
2018-04-24T07:30:04.648Z,19.80
2018-04-24T07:35:07.236Z,23.73
2018-04-24T07:40:10.580Z,17.60
2018-04-24T07:45:14.829Z,19.37
2018-04-24T07:50:17.414Z,18.60
2018-04-24T07:55:22.564Z,16.07
2018-04-24T08:00:25.145Z,19.13
2018-04-24T08:05:27.737Z,23.80
2018-04-24T08:10:30.793Z,19.70
2018-04-24T08:15:34.918Z,17.70
2018-04-24T08:20:38.012Z,20.77
2018-04-24T08:25:43.293Z,18.00
2018-04-24T08:30:45.881Z,15.40
2018-04-24T08:35:49.414Z,16.00
2018-04-24T08:40:52.435Z,17.90
2018-04-24T08:45:55.024Z,16.57
2018-04-24T08:50:58.761Z,18.33
2018-04-24T08:56:02.019Z,13.73
2018-04-24T09:01:05.700Z,18.43
2018-04-24T09:06:08.273Z,12.90
2018-04-24T09:11:11.513Z,18.60
2018-04-24T09:16:15.045Z,13.47
2018-04-24T09:21:18.676Z,20.10
2018-04-24T09:26:22.453Z,14.00
2018-04-24T09:36:56.697Z,17.83
2018-04-24T09:41:59.260Z,14.50
2018-04-24T09:47:01.823Z,15.97
2018-04-24T09:52:04.712Z,15.00
2018-04-24T09:57:07.871Z,13.77
2018-04-24T10:02:10.742Z,11.83
2018-04-24T10:07:13.557Z,12.97
2018-04-24T10:12:16.141Z,9.63
2018-04-24T10:17:19.405Z,15.83
2018-04-24T10:22:22.767Z,10.83
2018-04-24T10:27:25.367Z,13.20
2018-04-24T10:32:28.833Z,16.37
2018-04-24T10:37:31.480Z,11.73
2018-04-24T10:42:37.268Z,8.90
2018-04-24T10:47:39.866Z,10.80
2018-04-24T10:52:46.785Z,13.30
2018-04-24T10:57:49.854Z,10.47
2018-04-24T11:02:52.441Z,8.53
2018-04-24T11:07:56.785Z,9.67
2018-04-24T11:12:59.340Z,10.20
2018-04-24T11:18:03.083Z,12.33
2018-04-24T11:23:06.899Z,8.07
2018-04-24T11:28:10.241Z,20.43
2018-04-24T11:33:12.812Z,11.80
2018-04-24T11:38:15.661Z,12.13
2018-04-24T11:43:18.868Z,12.73
2018-04-24T11:48:21.452Z,12.07
2018-04-24T11:53:24.781Z,11.67
2018-04-24T11:58:27.341Z,11.13
2018-04-24T12:03:29.975Z,10.27
2018-04-24T12:08:32.553Z,18.00
2018-04-24T12:13:36.500Z,9.67
2018-04-24T12:18:39.555Z,7.53
2018-04-24T12:23:42.147Z,8.00
2018-04-24T12:28:45.148Z,7.43
2018-04-24T12:33:47.720Z,4.60
2018-04-24T12:38:50.298Z,8.50
2018-04-24T12:43:59.670Z,10.43
2018-04-24T12:49:04.400Z,14.60
2018-04-24T12:54:07.317Z,18.00
2018-04-24T12:59:10.978Z,10.50
2018-04-24T13:04:14.180Z,10.03
2018-04-24T13:09:17.748Z,10.20
2018-04-24T13:14:21.124Z,9.53
2018-04-24T13:19:23.710Z,8.43
2018-04-24T13:24:26.277Z,8.37
2018-04-24T13:34:39.585Z,5.07
2018-04-24T13:39:42.149Z,9.73
2018-04-24T13:44:47.474Z,6.57
2018-04-24T13:49:50.730Z,8.80
2018-04-24T13:54:54.263Z,9.37
2018-04-24T13:59:57.591Z,5.93
2018-04-24T14:05:00.400Z,5.87
2018-04-24T14:10:02.983Z,8.10
2018-04-24T14:15:06.005Z,8.53
2018-04-24T14:20:08.929Z,6.57
2018-04-24T14:25:12.005Z,12.80
2018-04-24T14:30:16.112Z,10.53
2018-04-24T14:35:18.721Z,7.40
2018-04-24T14:40:23.133Z,7.53
2018-04-24T14:45:26.590Z,6.40
2018-04-24T14:50:30.486Z,7.13
2018-04-24T14:55:33.053Z,5.73
2018-04-24T15:00:38.857Z,8.60
2018-04-24T15:05:41.437Z,6.87
2018-04-24T15:10:44.108Z,7.17
2018-04-24T15:15:47.148Z,5.70
2018-04-24T15:20:49.749Z,8.30
2018-04-24T15:25:52.752Z,5.50
2018-04-24T15:30:55.539Z,10.03
2018-04-24T15:35:58.466Z,5.27
2018-04-24T15:41:01.037Z,9.03
2018-04-24T15:46:04.265Z,7.27
2018-04-24T15:51:07.500Z,5.87
2018-04-24T15:56:11.237Z,4.70
2018-04-24T16:01:14.493Z,13.43
2018-04-24T16:06:17.662Z,9.90
2018-04-24T16:11:20.972Z,5.60
2018-04-24T16:16:25.054Z,7.77
2018-04-24T16:21:34.314Z,5.90
2018-04-24T16:26:36.869Z,9.73
2018-04-24T16:31:40.108Z,11.30
2018-04-24T16:36:42.684Z,8.50
2018-04-24T16:41:46.032Z,8.60
2018-04-24T16:46:49.070Z,7.83
2018-04-24T16:51:53.537Z,5.70
2018-04-24T16:56:56.134Z,6.87
2018-04-24T17:01:59.019Z,8.27
2018-04-24T17:07:02.294Z,8.07
2018-04-24T17:12:05.150Z,7.67
2018-04-24T17:17:07.723Z,7.13
2018-04-24T17:22:11.881Z,11.23
2018-04-24T17:27:17.734Z,11.70
2018-04-24T17:32:20.937Z,8.67
2018-04-24T17:37:23.516Z,10.43
2018-04-24T17:42:26.103Z,7.60
2018-04-24T17:47:29.368Z,10.47
2018-04-24T17:52:33.072Z,6.87
2018-04-24T17:57:36.735Z,14.90
2018-04-24T18:02:39.321Z,7.33
2018-04-24T18:07:42.419Z,10.03
2018-04-24T18:12:45.679Z,9.87
2018-04-24T18:17:49.021Z,5.97
2018-04-24T18:22:51.616Z,9.57
2018-04-24T18:27:54.229Z,11.03
2018-04-24T18:32:56.808Z,11.67
2018-04-24T18:37:59.447Z,13.00
2018-04-24T18:43:08.657Z,13.67
2018-04-24T18:48:11.812Z,8.73
2018-04-24T18:53:14.691Z,5.70
2018-04-24T18:58:17.915Z,8.33
2018-04-24T19:03:20.503Z,7.03
2018-04-24T19:08:24.498Z,8.50
2018-04-24T19:13:28.110Z,6.13
2018-04-24T19:18:36.993Z,7.20
2018-04-24T19:23:40.480Z,7.13
2018-04-24T19:28:43.521Z,8.67
2018-04-24T19:33:46.102Z,7.23
2018-04-24T20:25:10.682Z,11.53
2018-04-24T20:30:14.081Z,7.67
2018-04-24T20:35:17.415Z,5.80
2018-04-24T20:40:19.987Z,7.80
2018-04-24T20:45:23.324Z,9.03
2018-04-24T20:50:25.900Z,8.60
2018-04-24T20:55:30.235Z,11.70
2018-04-24T21:00:36.085Z,8.17
2018-04-24T21:05:39.531Z,11.60
2018-04-24T21:10:46.385Z,9.97
2018-04-24T21:15:49.030Z,12.10
2018-04-24T21:20:52.813Z,8.10
2018-04-24T21:25:55.381Z,10.93
2018-04-24T21:30:57.966Z,14.53
2018-04-24T21:36:01.941Z,11.97
2018-04-24T21:41:04.576Z,11.87
2018-04-24T21:46:08.940Z,13.47
2018-04-24T21:51:13.472Z,11.17
2018-04-24T21:56:16.701Z,14.33
2018-04-24T22:01:19.854Z,9.33
2018-04-24T22:06:22.440Z,18.67
2018-04-24T22:11:25.649Z,12.43
2018-04-24T22:16:28.221Z,19.03
2018-04-24T22:21:30.797Z,16.07
2018-04-24T22:31:43.877Z,11.47
2018-04-24T22:36:47.770Z,9.30
2018-04-24T22:41:50.351Z,13.00
2018-04-24T22:46:53.301Z,11.63
2018-04-24T22:51:56.638Z,8.27
2018-04-24T22:56:59.774Z,8.77
2018-04-24T23:02:02.702Z,9.50
2018-04-24T23:07:05.299Z,17.53
2018-04-24T23:12:21.439Z,7.50
2018-04-24T23:17:37.126Z,17.33
2018-04-24T23:22:41.433Z,9.30
2018-04-24T23:27:44.451Z,9.60
2018-04-24T23:32:47.336Z,10.10
2018-04-24T23:37:50.730Z,11.47
2018-04-24T23:42:54.890Z,9.20
2018-04-24T23:47:57.747Z,11.90
2018-04-24T23:53:03.026Z,10.23
2018-04-24T23:58:06.656Z,8.17
